Time;durP1;ratioP1;P1;durP2;ratioP2;P2;SDS_P1;SDS_P2;PMS_P1;PMS_P2;Temp;Humidity;BMP_temperature;BMP_pressure;BME280_temperature;BME280_humidity;BME280_pressure;Samples;Min_cycle;Max_cycle;Signal;HPM_P1;HPM_P2
2023/03/26 00:00:22;;;;;;;19.73;3.03;;;7.30;99.90;;;;;;5069882;28;20766;-84
2023/03/26 00:02:48;;;;;;;15.48;3.30;;;7.30;99.90;;;;;;5069973;28;20159;-84
2023/03/26 00:05:15;;;;;;;16.42;2.45;;;7.30;99.90;;;;;;5069706;28;20029;-83
2023/03/26 00:07:42;;;;;;;10.00;2.03;;;7.30;99.90;;;;;;5119657;28;20102;-83
2023/03/26 00:10:09;;;;;;;17.33;2.80;;;7.30;99.90;;;;;;5069803;28;20041;-83
2023/03/26 00:12:35;;;;;;;14.55;3.25;;;7.30;99.90;;;;;;5085810;28;20075;-83
2023/03/26 00:15:03;;;;;;;14.13;2.60;;;7.30;99.90;;;;;;5069831;28;20044;-83
2023/03/26 00:17:30;;;;;;;13.25;2.40;;;7.30;99.90;;;;;;5087064;28;20048;-83
2023/03/26 00:19:58;;;;;;;14.20;2.40;;;7.30;99.90;;;;;;5119566;28;20036;-83
2023/03/26 00:22:25;;;;;;;14.40;2.40;;;7.30;99.90;;;;;;5069518;28;20053;-83
2023/03/26 00:24:52;;;;;;;10.57;2.08;;;7.30;99.90;;;;;;5085779;28;20079;-83
2023/03/26 00:27:18;;;;;;;14.02;2.10;;;7.30;99.90;;;;;;5086141;28;20048;-83
2023/03/26 00:29:47;;;;;;;8.82;1.88;;;7.30;99.90;;;;;;5069439;28;20477;-83
2023/03/26 00:32:13;;;;;;;14.20;2.22;;;7.30;99.90;;;;;;5086092;28;20044;-83
2023/03/26 00:34:41;;;;;;;13.80;2.53;;;7.30;99.90;;;;;;5069330;28;20128;-83
2023/03/26 00:37:07;;;;;;;19.33;3.10;;;7.30;99.90;;;;;;5086195;28;20049;-83
2023/03/26 00:39:36;;;;;;;10.73;2.17;;;7.30;99.90;;;;;;5069170;28;20049;-83
2023/03/26 00:42:06;;;;;;;11.20;1.77;;;7.30;99.90;;;;;;5086018;28;20052;-83
2023/03/26 00:44:33;;;;;;;17.20;2.40;;;7.30;99.90;;;;;;5102195;28;20037;-84
2023/03/26 00:47:00;;;;;;;9.85;2.00;;;7.30;99.90;;;;;;5085666;28;20868;-83
2023/03/26 00:49:29;;;;;;;13.15;2.08;;;7.20;99.90;;;;;;5069051;28;20045;-83
2023/03/26 00:51:56;;;;;;;12.18;2.08;;;7.30;99.90;;;;;;5069365;28;20051;-83
2023/03/26 00:54:22;;;;;;;19.88;2.45;;;7.30;99.90;;;;;;5069146;28;20045;-83
2023/03/26 00:56:49;;;;;;;11.07;1.83;;;7.20;99.90;;;;;;5068803;28;20500;-83
2023/03/26 00:59:16;;;;;;;13.32;2.15;;;7.20;99.90;;;;;;5085708;28;20545;-83
2023/03/26 01:01:43;;;;;;;13.90;2.30;;;7.20;99.90;;;;;;5068685;28;20128;-83
2023/03/26 01:04:29;;;;;;;13.00;2.22;;;7.10;99.90;;;;;;5069370;28;20049;-83
2023/03/26 01:07:00;;;;;;;14.05;2.40;;;7.10;99.90;;;;;;5068539;28;20072;-83
2023/03/26 01:09:36;;;;;;;17.23;2.42;;;7.10;99.90;;;;;;5069344;28;20178;-83
2023/03/26 01:12:06;;;;;;;16.65;2.47;;;7.10;99.90;;;;;;5068578;28;20059;-83
2023/03/26 01:14:33;;;;;;;15.18;2.25;;;7.10;99.90;;;;;;5102537;28;20045;-83
2023/03/26 01:17:02;;;;;;;15.85;2.08;;;7.10;99.90;;;;;;5102150;28;20091;-83
2023/03/26 01:19:47;;;;;;;11.15;2.10;;;7.10;99.90;;;;;;5085609;28;20095;-83
2023/03/26 01:22:20;;;;;;;11.35;2.42;;;7.10;99.90;;;;;;5102239;28;20047;-83
2023/03/26 01:24:51;;;;;;;11.30;2.50;;;7.10;99.90;;;;;;5068793;28;20037;-83
2023/03/26 01:27:37;;;;;;;15.10;3.20;;;7.10;99.90;;;;;;5084965;28;20109;-83
2023/03/26 01:30:17;;;;;;;20.67;4.40;;;7.10;99.90;;;;;;5068973;28;20052;-83
2023/03/26 01:33:03;;;;;;;11.30;2.58;;;7.10;99.90;;;;;;5085420;28;20390;-83
2023/03/26 01:35:39;;;;;;;16.73;3.00;;;7.10;99.90;;;;;;5085267;28;20060;-83
2023/03/26 01:38:27;;;;;;;13.93;2.60;;;7.10;99.90;;;;;;5102351;28;20107;-83
2023/03/26 01:41:02;;;;;;;12.60;2.45;;;7.00;99.90;;;;;;5085148;28;20049;-83
2023/03/26 01:43:59;;;;;;;16.85;2.40;;;7.00;99.90;;;;;;5102090;28;20045;-83
2023/03/26 01:46:27;;;;;;;19.58;2.55;;;7.00;99.90;;;;;;5102497;28;20103;-83
2023/03/26 01:48:54;;;;;;;14.88;2.33;;;7.00;99.90;;;;;;5085080;28;20053;-83
2023/03/26 01:51:33;;;;;;;6.95;2.00;;;6.90;99.90;;;;;;5068561;28;20040;-83
2023/03/26 01:54:04;;;;;;;15.30;2.22;;;6.90;99.90;;;;;;5085291;28;20056;-83
2023/03/26 01:56:38;;;;;;;15.10;1.90;;;7.00;99.90;;;;;;5103626;28;20045;-83
2023/03/26 01:59:41;;;;;;;21.08;2.60;;;6.90;99.90;;;;;;5089062;28;20041;-83
2023/03/26 02:02:41;;;;;;;10.20;2.03;;;6.90;99.90;;;;;;5105472;28;20056;-84
2023/03/26 02:05:24;;;;;;;17.40;2.10;;;6.80;99.90;;;;;;5072014;28;20409;-84
2023/03/26 02:08:01;;;;;;;17.52;2.60;;;6.80;99.90;;;;;;5088933;28;20041;-83
2023/03/26 02:10:37;;;;;;;15.20;2.08;;;6.70;99.90;;;;;;5072366;28;20114;-83
2023/03/26 02:13:04;;;;;;;11.75;1.60;;;6.70;99.90;;;;;;5104918;28;20040;-83
2023/03/26 02:15:32;;;;;;;10.13;1.90;;;6.60;99.90;;;;;;5088520;28;20489;-83
2023/03/26 02:18:00;;;;;;;13.30;1.95;;;6.60;99.90;;;;;;5105169;28;20115;-83
2023/03/26 02:20:29;;;;;;;22.13;2.78;;;6.60;99.90;;;;;;5087912;28;20472;-83
2023/03/26 02:22:56;;;;;;;15.77;2.70;;;6.50;99.90;;;;;;5071190;28;20462;-83
2023/03/26 02:25:23;;;;;;;15.55;2.25;;;6.60;99.90;;;;;;5088558;28;20091;-83
2023/03/26 02:27:51;;;;;;;13.48;1.90;;;6.60;99.90;;;;;;5105411;28;20140;-83
2023/03/26 02:30:24;;;;;;;10.15;2.45;;;6.50;99.90;;;;;;5088233;28;20051;-83
2023/03/26 02:32:52;;;;;;;14.23;2.40;;;6.50;99.90;;;;;;5071503;28;20189;-83
2023/03/26 02:35:20;;;;;;;9.82;2.40;;;6.50;99.90;;;;;;5087914;28;20128;-83
2023/03/26 02:37:49;;;;;;;16.23;2.28;;;6.50;99.90;;;;;;5071417;28;20409;-83
2023/03/26 02:40:19;;;;;;;18.30;2.47;;;6.50;99.90;;;;;;5071406;28;20121;-83
2023/03/26 02:42:49;;;;;;;14.52;2.35;;;6.40;99.90;;;;;;5087727;28;20033;-83
2023/03/26 02:45:16;;;;;;;16.30;2.45;;;6.40;99.90;;;;;;5071019;28;20508;-83
2023/03/26 02:47:44;;;;;;;15.73;2.38;;;6.40;99.90;;;;;;5087958;28;20124;-83
2023/03/26 02:50:11;;;;;;;17.00;3.03;;;6.40;99.90;;;;;;5087740;28;20045;-83
2023/03/26 02:52:38;;;;;;;13.10;2.90;;;6.40;99.90;;;;;;5071619;28;20043;-83
2023/03/26 02:55:06;;;;;;;18.25;2.90;;;6.40;99.90;;;;;;5104596;28;20525;-83
2023/03/26 02:57:33;;;;;;;13.95;2.80;;;6.40;99.90;;;;;;5071291;28;20132;-84
2023/03/26 03:00:07;;;;;;;20.58;2.47;;;6.50;99.90;;;;;;5070819;28;20133;-83
2023/03/26 03:02:37;;;;;;;13.00;2.38;;;6.50;99.90;;;;;;5087710;28;20041;-83
2023/03/26 03:05:04;;;;;;;14.13;2.40;;;6.40;99.90;;;;;;5070987;28;20854;-83
2023/03/26 03:07:31;;;;;;;11.82;2.10;;;6.50;99.90;;;;;;5087238;28;20052;-83
2023/03/26 03:10:01;;;;;;;13.73;2.60;;;6.50;99.90;;;;;;5071388;28;20409;-83
2023/03/26 03:12:27;;;;;;;11.10;2.00;;;6.50;99.90;;;;;;5070851;28;20067;-83
2023/03/26 03:14:54;;;;;;;21.13;2.83;;;6.40;99.90;;;;;;5054394;28;20056;-83
2023/03/26 03:17:21;;;;;;;17.35;2.50;;;6.50;99.90;;;;;;5054307;28;20044;-83
2023/03/26 03:19:48;;;;;;;12.25;1.90;;;6.40;99.90;;;;;;5054217;28;20033;-83
2023/03/26 03:22:14;;;;;;;13.75;2.15;;;6.40;99.90;;;;;;5053867;28;20107;-83
2023/03/26 03:24:42;;;;;;;18.95;2.38;;;6.40;99.90;;;;;;5087108;28;20048;-83
2023/03/26 03:27:09;;;;;;;13.48;2.10;;;6.40;99.90;;;;;;5120706;28;20049;-83
2023/03/26 03:29:36;;;;;;;12.10;1.98;;;6.50;99.90;;;;;;5070746;28;20387;-83
2023/03/26 03:32:03;;;;;;;14.30;2.45;;;6.40;99.90;;;;;;5070711;28;20044;-83
2023/03/26 03:34:30;;;;;;;11.60;2.00;;;6.40;99.90;;;;;;5086703;28;20056;-83
2023/03/26 03:36:56;;;;;;;12.57;2.17;;;6.40;99.90;;;;;;5087168;28;20135;-83
2023/03/26 03:39:23;;;;;;;15.23;2.63;;;6.50;99.90;;;;;;5119799;28;20072;-83
2023/03/26 03:41:50;;;;;;;12.20;1.73;;;6.40;99.90;;;;;;5086567;28;20053;-83
2023/03/26 03:44:16;;;;;;;11.15;2.00;;;6.40;99.90;;;;;;5053118;28;20041;-83
2023/03/26 03:46:43;;;;;;;15.93;2.13;;;6.40;99.90;;;;;;5086741;28;20041;-83
2023/03/26 03:49:10;;;;;;;11.75;2.45;;;6.40;99.90;;;;;;5086284;28;20076;-83
2023/03/26 03:51:36;;;;;;;11.13;2.35;;;6.40;99.90;;;;;;5086795;28;20045;-83
2023/03/26 03:54:03;;;;;;;8.68;2.00;;;6.40;99.90;;;;;;5053548;28;20825;-83
2023/03/26 03:56:30;;;;;;;16.48;2.28;;;6.40;99.90;;;;;;5053518;28;20515;-83
2023/03/26 03:58:57;;;;;;;13.10;1.85;;;6.40;99.90;;;;;;5070050;28;20120;-83
2023/03/26 04:01:24;;;;;;;13.93;2.13;;;6.40;99.90;;;;;;5069689;28;20041;-83
2023/03/26 04:03:50;;;;;;;17.00;2.38;;;6.40;99.90;;;;;;5053593;28;20037;-83
2023/03/26 04:06:17;;;;;;;9.77;2.08;;;6.40;99.90;;;;;;5069829;28;20095;-83
2023/03/26 04:08:45;;;;;;;10.68;2.13;;;6.40;99.90;;;;;;5070125;28;20037;-83
2023/03/26 04:11:13;;;;;;;11.93;2.45;;;6.40;99.90;;;;;;5086584;28;20092;-83
2023/03/26 04:13:39;;;;;;;17.08;2.03;;;6.40;99.90;;;;;;5103208;28;20578;-83
2023/03/26 04:16:07;;;;;;;18.20;2.20;;;6.30;99.90;;;;;;5069824;28;20128;-83
2023/03/26 04:18:35;;;;;;;16.05;2.70;;;6.20;99.90;;;;;;5085370;28;20029;-83
2023/03/26 04:21:04;;;;;;;16.30;2.70;;;6.20;99.90;;;;;;5086196;28;20540;-83
2023/03/26 04:23:31;;;;;;;20.27;2.70;;;6.20;99.90;;;;;;5102692;28;20413;-83
2023/03/26 04:26:02;;;;;;;11.30;2.17;;;6.10;99.90;;;;;;5086118;28;20036;-83
2023/03/26 04:28:41;;;;;;;16.23;2.28;;;6.10;99.90;;;;;;5069608;28;20048;-83
2023/03/26 04:31:12;;;;;;;16.42;2.08;;;6.00;99.90;;;;;;5103170;28;20501;-83
2023/03/26 04:33:39;;;;;;;15.68;2.20;;;6.10;99.90;;;;;;5069426;28;20413;-83
2023/03/26 04:36:06;;;;;;;15.02;2.05;;;6.10;99.90;;;;;;5103219;28;20043;-83
2023/03/26 04:38:42;;;;;;;14.75;2.10;;;6.00;99.90;;;;;;5069167;28;20120;-83
2023/03/26 04:41:12;;;;;;;17.50;2.40;;;6.00;99.90;;;;;;5069666;28;20215;-83
2023/03/26 04:43:45;;;;;;;15.02;2.28;;;5.90;99.90;;;;;;5086081;28;20048;-83
2023/03/26 04:46:13;;;;;;;16.70;2.42;;;6.00;99.90;;;;;;5085750;28;20520;-82
2023/03/26 04:48:40;;;;;;;17.65;2.58;;;5.90;99.90;;;;;;5086251;28;20593;-83
2023/03/26 04:51:08;;;;;;;15.82;2.50;;;5.90;99.90;;;;;;5085944;28;20033;-83
2023/03/26 04:53:35;;;;;;;11.85;2.08;;;6.00;99.90;;;;;;5085622;28;20048;-83
2023/03/26 04:56:24;;;;;;;10.10;2.25;;;6.00;99.90;;;;;;5069323;28;20405;-83
2023/03/26 04:58:55;;;;;;;9.70;2.55;;;6.00;99.90;;;;;;5085975;28;20072;-83
2023/03/26 05:01:23;;;;;;;12.50;2.90;;;6.00;99.90;;;;;;5069233;28;20045;-83
2023/03/26 05:03:50;;;;;;;13.80;2.15;;;6.00;99.90;;;;;;5085844;28;20041;-83
2023/03/26 05:06:16;;;;;;;10.82;2.00;;;6.00;99.90;;;;;;5086030;28;20439;-83
2023/03/26 05:08:43;;;;;;;16.30;2.20;;;6.00;99.90;;;;;;5086063;28;20072;-83
2023/03/26 05:11:10;;;;;;;14.27;2.28;;;6.00;99.90;;;;;;5069019;28;20051;-83
2023/03/26 05:13:37;;;;;;;11.77;2.25;;;6.00;99.90;;;;;;5085144;28;20057;-83
2023/03/26 05:16:04;;;;;;;12.55;2.10;;;6.00;99.90;;;;;;5068669;28;20122;-83
2023/03/26 05:18:32;;;;;;;25.00;3.28;;;6.00;99.90;;;;;;5101635;28;20044;-83
2023/03/26 05:20:59;;;;;;;19.25;3.25;;;6.00;99.90;;;;;;5102028;28;20106;-83
2023/03/26 05:23:25;;;;;;;13.68;2.95;;;6.00;99.90;;;;;;5084699;28;20033;-83
2023/03/26 05:25:52;;;;;;;14.27;2.15;;;6.00;99.90;;;;;;5085069;28;20074;-83
2023/03/26 05:28:23;;;;;;;12.00;1.80;;;6.10;99.90;;;;;;5068359;28;20167;-83
2023/03/26 05:30:51;;;;;;;14.80;2.25;;;6.10;99.90;;;;;;5087029;28;20257;-83
2023/03/26 05:33:19;;;;;;;19.52;2.30;;;6.00;99.90;;;;;;5089323;28;20413;-83
2023/03/26 05:35:48;;;;;;;14.82;2.50;;;6.00;99.90;;;;;;5105957;28;20528;-83
2023/03/26 05:38:14;;;;;;;14.00;2.03;;;6.10;99.90;;;;;;5072740;28;20179;-83
2023/03/26 05:40:41;;;;;;;11.00;2.30;;;6.00;99.90;;;;;;5088905;28;20131;-83
2023/03/26 05:43:08;;;;;;;19.50;2.10;;;6.00;99.90;;;;;;5088704;28;20043;-83
2023/03/26 05:45:35;;;;;;;12.45;1.95;;;6.10;99.90;;;;;;5089185;28;20516;-83
2023/03/26 05:48:01;;;;;;;14.10;2.10;;;6.10;99.90;;;;;;5122498;28;20063;-83
2023/03/26 05:50:28;;;;;;;10.63;1.90;;;6.00;99.90;;;;;;5088755;28;20036;-83
2023/03/26 05:52:55;;;;;;;13.00;1.75;;;6.10;99.90;;;;;;5089024;28;20033;-83
2023/03/26 05:55:21;;;;;;;16.70;2.47;;;6.10;99.90;;;;;;5072258;28;20044;-83
2023/03/26 05:57:48;;;;;;;15.13;2.03;;;6.10;99.90;;;;;;5089304;28;20040;-83
2023/03/26 06:00:15;;;;;;;11.55;1.77;;;6.10;99.90;;;;;;5072243;28;20041;-83
2023/03/26 06:02:41;;;;;;;11.52;1.92;;;6.10;99.90;;;;;;5088567;28;20041;-83
2023/03/26 06:05:08;;;;;;;11.43;2.03;;;6.10;99.90;;;;;;5088671;28;20079;-83
2023/03/26 06:07:35;;;;;;;15.25;1.95;;;6.10;99.90;;;;;;5088696;28;20048;-83
2023/03/26 06:10:02;;;;;;;10.90;1.88;;;6.10;99.90;;;;;;5072208;28;20045;-83
2023/03/26 06:12:29;;;;;;;13.88;1.88;;;6.10;99.90;;;;;;5088409;28;20511;-83
2023/03/26 06:14:55;;;;;;;7.60;1.67;;;6.00;99.90;;;;;;5088343;28;20053;-83
2023/03/26 06:17:23;;;;;;;16.80;2.33;;;6.10;99.90;;;;;;5072414;28;20056;-83
2023/03/26 06:19:49;;;;;;;12.75;1.88;;;6.10;99.90;;;;;;5088069;28;20079;-83
2023/03/26 06:22:16;;;;;;;15.23;1.88;;;6.10;99.90;;;;;;5088512;28;20401;-83
2023/03/26 06:24:43;;;;;;;11.05;2.10;;;6.10;99.90;;;;;;5071509;28;20041;-83
2023/03/26 06:27:10;;;;;;;15.43;2.08;;;6.20;99.90;;;;;;5088424;28;20120;-83
2023/03/26 06:29:36;;;;;;;14.85;2.75;;;6.10;99.90;;;;;;5104602;28;20041;-83
2023/03/26 06:32:03;;;;;;;15.57;2.60;;;6.20;99.90;;;;;;5088313;28;20041;-83
2023/03/26 06:34:30;;;;;;;9.88;2.22;;;6.20;99.90;;;;;;5071374;28;20071;-83
2023/03/26 06:36:57;;;;;;;15.32;2.05;;;6.30;99.90;;;;;;5071813;28;20131;-83
2023/03/26 06:39:23;;;;;;;13.27;1.85;;;6.20;99.90;;;;;;5071607;28;20175;-83
2023/03/26 06:41:50;;;;;;;13.27;2.10;;;6.30;99.90;;;;;;5070380;28;20056;-83
2023/03/26 06:44:16;;;;;;;13.15;2.10;;;6.20;99.90;;;;;;5104610;28;20539;-83
2023/03/26 06:46:43;;;;;;;14.63;2.03;;;6.30;99.90;;;;;;5087854;28;20037;-83
2023/03/26 06:49:10;;;;;;;13.80;2.42;;;6.30;99.90;;;;;;5087487;28;20056;-83
2023/03/26 06:51:39;;;;;;;11.93;2.10;;;6.40;99.90;;;;;;5087527;28;20041;-83
2023/03/26 06:54:06;;;;;;;8.80;1.80;;;6.40;99.90;;;;;;5071191;28;20481;-83
2023/03/26 06:56:32;;;;;;;11.25;2.08;;;6.40;99.90;;;;;;5070939;28;20048;-83
2023/03/26 06:58:59;;;;;;;10.45;1.83;;;6.50;99.90;;;;;;5071380;28;20060;-83
2023/03/26 07:01:26;;;;;;;16.42;2.17;;;6.50;99.90;;;;;;5071488;28;20044;-83
2023/03/26 07:03:53;;;;;;;11.95;1.85;;;6.50;99.90;;;;;;5038096;28;20037;-83
2023/03/26 07:06:19;;;;;;;17.13;2.08;;;6.50;99.90;;;;;;5038179;28;20524;-83
2023/03/26 07:08:46;;;;;;;12.27;2.15;;;6.50;99.90;;;;;;5071028;28;20132;-82
2023/03/26 07:11:15;;;;;;;12.32;2.03;;;6.60;99.90;;;;;;5087484;28;20107;-83
2023/03/26 07:13:42;;;;;;;9.02;1.98;;;6.60;99.90;;;;;;5103498;28;20048;-84
2023/03/26 07:16:08;;;;;;;12.00;1.80;;;6.60;99.90;;;;;;5070501;28;20041;-82
2023/03/26 07:18:35;;;;;;;11.70;2.28;;;6.60;99.90;;;;;;5087098;28;20095;-83
2023/03/26 07:21:02;;;;;;;11.98;2.45;;;6.60;99.90;;;;;;5070611;28;20111;-84
2023/03/26 07:23:29;;;;;;;14.65;2.10;;;6.60;99.90;;;;;;5084259;28;20041;-84
2023/03/26 07:25:56;;;;;;;16.67;2.45;;;6.60;99.90;;;;;;5066745;28;20094;-84
2023/03/26 07:28:36;;;;;;;16.33;2.25;;;6.60;99.90;;;;;;5084785;28;20044;-84
2023/03/26 07:31:25;;;;;;;13.07;1.92;;;6.60;99.90;;;;;;5070726;28;20128;-84
2023/03/26 07:34:02;;;;;;;12.95;1.73;;;6.70;99.90;;;;;;5103988;28;20044;-84
2023/03/26 07:36:47;;;;;;;9.35;1.67;;;6.80;99.90;;;;;;5103644;28;20481;-84
2023/03/26 07:39:31;;;;;;;12.55;2.00;;;6.80;99.90;;;;;;5087003;28;20123;-84
2023/03/26 07:42:01;;;;;;;13.77;2.38;;;6.80;99.90;;;;;;5070568;28;20041;-84
2023/03/26 07:44:34;;;;;;;16.45;2.22;;;6.80;99.90;;;;;;5086429;28;20095;-84
2023/03/26 07:47:07;;;;;;;12.32;2.00;;;6.80;99.90;;;;;;5069524;28;20199;-84
2023/03/26 07:49:36;;;;;;;8.20;1.70;;;6.80;99.90;;;;;;5086985;28;20059;-84
2023/03/26 07:52:04;;;;;;;21.20;2.42;;;6.90;99.90;;;;;;5070355;28;20132;-84
2023/03/26 07:54:31;;;;;;;12.20;1.58;;;6.90;99.90;;;;;;5070171;28;20048;-84
2023/03/26 07:57:03;;;;;;;9.45;1.77;;;6.90;99.90;;;;;;5069988;28;20047;-84
2023/03/26 07:59:37;;;;;;;11.35;2.03;;;7.10;99.90;;;;;;5086785;28;20382;-84
2023/03/26 08:02:28;;;;;;;18.20;2.25;;;7.00;99.90;;;;;;5103161;28;20516;-84
2023/03/26 08:05:24;;;;;;;11.68;1.70;;;7.00;99.90;;;;;;5069900;28;20041;-84
2023/03/26 08:08:29;;;;;;;8.30;1.83;;;7.10;99.90;;;;;;5102860;28;20040;-84
2023/03/26 08:11:23;;;;;;;11.45;2.15;;;7.10;99.90;;;;;;5102770;28;20505;-84
2023/03/26 08:14:07;;;;;;;20.55;3.08;;;7.10;99.90;;;;;;5102573;28;20139;-84
2023/03/26 08:17:00;;;;;;;14.30;1.83;;;7.10;99.90;;;;;;5118699;28;20064;-81
2023/03/26 08:19:27;;;;;;;12.15;2.05;;;7.10;99.90;;;;;;5119252;28;20552;-83
2023/03/26 08:22:01;;;;;;;16.23;2.22;;;7.10;99.90;;;;;;5101227;28;20053;-84
2023/03/26 08:24:30;;;;;;;10.77;1.92;;;7.10;99.90;;;;;;5102178;28;20044;-82
2023/03/26 08:27:12;;;;;;;12.88;2.28;;;7.10;99.90;;;;;;5085622;28;20045;-84
2023/03/26 08:29:43;;;;;;;21.55;1.98;;;7.20;99.90;;;;;;5102133;28;20048;-84
2023/03/26 08:32:17;;;;;;;11.70;1.75;;;7.20;99.90;;;;;;5082367;28;20096;-84
2023/03/26 08:34:45;;;;;;;13.38;2.05;;;7.20;99.90;;;;;;5065768;28;20037;-84
2023/03/26 08:37:12;;;;;;;10.75;2.20;;;7.20;99.90;;;;;;5082313;28;20081;-84
2023/03/26 08:39:40;;;;;;;11.95;2.17;;;7.20;99.90;;;;;;5079531;28;20047;-84
2023/03/26 08:42:25;;;;;;;11.40;2.40;;;7.20;99.90;;;;;;5068967;28;20045;-84
2023/03/26 08:45:25;;;;;;;13.65;2.00;;;7.30;99.90;;;;;;5102079;28;20127;-83
2023/03/26 08:48:27;;;;;;;18.08;2.50;;;7.30;99.90;;;;;;5102221;28;20047;-84
2023/03/26 08:51:28;;;;;;;13.65;2.15;;;7.30;99.90;;;;;;5136064;28;20139;-84
2023/03/26 08:54:19;;;;;;;14.05;2.60;;;7.40;99.90;;;;;;5135518;28;20052;-84
2023/03/26 08:57:22;;;;;;;8.63;1.80;;;7.30;99.90;;;;;;5118759;28;20134;-84
2023/03/26 09:00:09;;;;;;;11.70;2.25;;;7.30;99.90;;;;;;5117645;28;20037;-84
2023/03/26 09:03:01;;;;;;;19.50;2.05;;;7.40;99.90;;;;;;5068897;28;20041;-85
2023/03/26 09:05:52;;;;;;;8.32;1.85;;;7.50;99.90;;;;;;5106530;28;20048;-85
2023/03/26 09:08:42;;;;;;;10.90;1.90;;;7.60;99.90;;;;;;5125987;28;20039;-84
2023/03/26 09:11:40;;;;;;;14.55;2.78;;;7.70;99.90;;;;;;5108584;28;20041;-84
2023/03/26 09:14:31;;;;;;;12.07;1.83;;;7.80;99.90;;;;;;5108465;28;20045;-84
2023/03/26 09:17:22;;;;;;;9.43;1.60;;;7.90;99.90;;;;;;5124709;28;20119;-85
2023/03/26 09:20:27;;;;;;;8.73;1.85;;;7.80;99.90;;;;;;5108263;28;20037;-84
2023/03/26 09:23:32;;;;;;;13.82;1.75;;;7.80;99.90;;;;;;5108279;28;20049;-84
2023/03/26 09:26:17;;;;;;;8.57;1.52;;;7.80;99.90;;;;;;5071187;28;20079;-84
2023/03/26 09:29:05;;;;;;;15.63;1.80;;;7.80;99.90;;;;;;5108777;28;20049;-84
2023/03/26 09:32:09;;;;;;;14.93;2.17;;;7.80;99.90;;;;;;5074804;28;20083;-85
2023/03/26 09:34:57;;;;;;;11.45;2.45;;;7.80;99.90;;;;;;5108932;28;20053;-85
2023/03/26 09:37:44;;;;;;;8.32;1.75;;;7.80;99.90;;;;;;5125569;28;20079;-85
2023/03/26 09:40:18;;;;;;;13.30;2.03;;;7.80;99.90;;;;;;5108307;28;20131;-84
2023/03/26 09:42:59;;;;;;;12.77;2.22;;;7.80;99.90;;;;;;5038998;28;20128;-84
2023/03/26 09:45:44;;;;;;;17.02;2.33;;;7.90;99.90;;;;;;5055254;28;20044;-84
2023/03/26 09:48:59;;;;;;;7.40;1.75;;;7.80;99.90;;;;;;5088534;28;20125;-84
2023/03/26 09:51:41;;;;;;;11.07;1.90;;;7.90;99.90;;;;;;5045439;28;20053;-85
2023/03/26 09:54:19;;;;;;;11.57;1.95;;;7.90;99.90;;;;;;5108440;28;20033;-84
2023/03/26 09:57:19;;;;;;;9.02;2.10;;;7.90;99.90;;;;;;5108503;28;20045;-84
2023/03/26 09:59:52;;;;;;;10.75;1.67;;;7.80;99.90;;;;;;5108695;28;20124;-84
2023/03/26 10:02:43;;;;;;;9.65;1.92;;;7.80;99.90;;;;;;5108675;28;20041;-84
2023/03/26 10:05:37;;;;;;;9.20;1.92;;;7.80;99.90;;;;;;5108673;28;20040;-84
2023/03/26 10:08:17;;;;;;;12.90;2.40;;;7.90;99.90;;;;;;5074720;28;20086;-84
2023/03/26 10:10:59;;;;;;;11.73;1.98;;;7.80;99.90;;;;;;5108387;28;20049;-84
2023/03/26 10:13:44;;;;;;;13.73;2.03;;;8.10;99.90;;;;;;5108414;28;20080;-84
2023/03/26 10:16:14;;;;;;;10.90;2.10;;;8.20;99.90;;;;;;5106458;28;20032;-84
2023/03/26 10:18:53;;;;;;;12.02;2.10;;;8.30;99.90;;;;;;5105087;28;20051;-84
2023/03/26 10:21:49;;;;;;;10.98;1.70;;;8.20;99.90;;;;;;5104992;28;20137;-84
2023/03/26 10:24:49;;;;;;;12.00;2.13;;;8.30;99.90;;;;;;5088689;28;20048;-84
2023/03/26 10:27:34;;;;;;;8.57;1.75;;;8.20;99.90;;;;;;5104646;28;20102;-84
2023/03/26 10:30:20;;;;;;;11.52;1.60;;;8.20;99.90;;;;;;5138857;28;20072;-84
2023/03/26 10:32:50;;;;;;;11.32;2.22;;;8.30;99.90;;;;;;5121202;28;20383;-83
2023/03/26 10:35:46;;;;;;;13.65;2.45;;;8.20;99.90;;;;;;5104846;28;20045;-84
2023/03/26 10:39:01;;;;;;;13.77;3.05;;;8.20;99.90;;;;;;5071244;28;20036;-83
2023/03/26 10:41:53;;;;;;;7.38;1.80;;;8.30;99.90;;;;;;5074740;28;20049;-83
2023/03/26 10:44:32;;;;;;;8.13;1.63;;;8.40;99.90;;;;;;5087509;28;20404;-83
2023/03/26 10:47:05;;;;;;;8.10;1.70;;;8.40;99.90;;;;;;5071116;28;20037;-84
2023/03/26 10:49:36;;;;;;;10.75;1.90;;;8.40;99.90;;;;;;5071371;28;20036;-83
2023/03/26 10:52:19;;;;;;;13.45;1.80;;;8.30;99.90;;;;;;5104096;28;20386;-84
2023/03/26 10:54:57;;;;;;;14.80;2.05;;;8.30;99.90;;;;;;5071333;28;20570;-83
2023/03/26 10:57:49;;;;;;;12.85;1.77;;;8.30;99.90;;;;;;5071277;28;20128;-83
2023/03/26 11:00:25;;;;;;;15.43;2.05;;;8.20;99.90;;;;;;5070689;28;20481;-83
2023/03/26 11:03:19;;;;;;;15.65;2.00;;;8.10;99.90;;;;;;5070487;28;20507;-84
2023/03/26 11:06:04;;;;;;;17.27;2.25;;;8.20;99.90;;;;;;5103703;28;20042;-84
2023/03/26 11:08:48;;;;;;;7.93;1.77;;;8.30;99.90;;;;;;5104058;28;20044;-83
2023/03/26 11:11:25;;;;;;;10.02;1.77;;;8.20;99.90;;;;;;5070678;28;20037;-83
2023/03/26 11:14:15;;;;;;;10.00;1.83;;;8.20;99.90;;;;;;5070359;28;20053;-84
2023/03/26 11:17:09;;;;;;;10.23;1.88;;;8.10;99.90;;;;;;5104017;28;20049;-83
2023/03/26 11:19:50;;;;;;;13.65;1.70;;;8.20;99.90;;;;;;5070595;28;20033;-84
2023/03/26 11:22:47;;;;;;;11.90;2.50;;;8.30;99.90;;;;;;5070654;28;20033;-84
2023/03/26 11:25:31;;;;;;;10.73;2.75;;;8.20;99.90;;;;;;5054636;28;20033;-84
2023/03/26 11:28:16;;;;;;;11.32;1.38;;;8.50;99.90;;;;;;5066944;28;20127;-84
2023/03/26 11:31:04;;;;;;;10.05;1.40;;;8.80;99.90;;;;;;5067933;28;20046;-84
2023/03/26 11:33:36;;;;;;;8.73;1.63;;;8.90;99.90;;;;;;5103619;28;20119;-84
2023/03/26 11:36:07;;;;;;;8.23;1.50;;;8.90;99.90;;;;;;5069580;28;20041;-84
2023/03/26 11:38:52;;;;;;;12.40;1.63;;;9.00;99.90;;;;;;5070033;28;20041;-84
2023/03/26 11:41:23;;;;;;;10.20;1.40;;;8.90;99.90;;;;;;5070078;28;20080;-83
2023/03/26 11:43:54;;;;;;;7.80;1.40;;;8.80;99.90;;;;;;5086328;28;20098;-83
2023/03/26 11:46:23;;;;;;;9.50;1.85;;;8.80;99.90;;;;;;5120080;28;20516;-84
2023/03/26 11:48:56;;;;;;;10.02;1.58;;;8.80;99.90;;;;;;5086803;28;20033;-84
2023/03/26 11:51:32;;;;;;;9.95;1.77;;;8.60;99.90;;;;;;5069531;28;20045;-84
2023/03/26 11:54:00;;;;;;;;;;;8.60;99.90;;;;;;5070472;28;20045;-84
2023/03/26 11:56:36;;;;;;;9.55;1.70;;;8.40;99.90;;;;;;5102658;28;19999;-84
2023/03/26 11:59:10;;;;;;;6.15;1.70;;;8.40;99.90;;;;;;5101459;28;20102;-83
2023/03/26 12:01:49;;;;;;;9.73;1.70;;;8.40;99.90;;;;;;5069732;28;20525;-82
2023/03/26 12:04:27;;;;;;;8.52;1.70;;;8.40;99.90;;;;;;5069478;28;20045;-84
2023/03/26 12:07:13;;;;;;;9.15;1.50;;;8.40;99.90;;;;;;5069479;28;20041;-84
2023/03/26 12:10:01;;;;;;;14.15;2.00;;;8.50;99.90;;;;;;5050026;28;20052;-84
2023/03/26 12:12:37;;;;;;;10.38;1.45;;;8.50;99.90;;;;;;5065249;28;20063;-84
2023/03/26 12:15:11;;;;;;;5.63;1.40;;;8.40;99.90;;;;;;5049265;28;20049;-84
2023/03/26 12:17:41;;;;;;;8.73;1.80;;;8.50;99.90;;;;;;5050854;28;20115;-84
2023/03/26 12:20:35;;;;;;;8.20;1.45;;;8.50;99.90;;;;;;5081748;28;20045;-85
2023/03/26 12:23:05;;;;;;;8.38;1.85;;;8.50;99.90;;;;;;5048432;28;20516;-84
2023/03/26 12:25:34;;;;;;;8.70;1.45;;;8.40;99.90;;;;;;5049400;28;20037;-84
2023/03/26 12:28:14;;;;;;;12.07;2.13;;;8.50;99.90;;;;;;5051243;28;20120;-85
2023/03/26 12:30:57;;;;;;;10.18;1.52;;;8.40;99.90;;;;;;5102417;28;20044;-85
2023/03/26 12:33:32;;;;;;;8.85;2.10;;;8.40;99.90;;;;;;5085685;28;20102;-84
2023/03/26 12:36:24;;;;;;;8.57;1.55;;;8.50;99.90;;;;;;5102567;28;20043;-85
2023/03/26 12:38:51;;;;;;;8.73;1.48;;;8.40;99.90;;;;;;5102118;28;20124;-84
2023/03/26 12:41:31;;;;;;;9.77;1.45;;;8.50;99.90;;;;;;5084649;28;20037;-84
2023/03/26 12:44:36;;;;;;;7.00;1.83;;;8.40;99.90;;;;;;5069046;28;20401;-83
2023/03/26 12:47:29;;;;;;;8.93;1.42;;;8.40;99.90;;;;;;5070871;28;20405;-85
2023/03/26 12:49:57;;;;;;;8.32;1.52;;;8.30;99.90;;;;;;5068381;28;20048;-84
2023/03/26 12:52:33;;;;;;;11.80;1.67;;;8.30;99.90;;;;;;5118879;28;20044;-84
2023/03/26 12:55:05;;;;;;;5.45;1.30;;;8.20;99.90;;;;;;5102240;28;20861;-85
2023/03/26 12:57:41;;;;;;;9.93;1.35;;;8.30;99.90;;;;;;5101815;28;20528;-84
2023/03/26 13:00:33;;;;;;;13.70;1.67;;;8.30;99.90;;;;;;5084848;28;20489;-84
2023/03/26 13:03:16;;;;;;;10.68;2.53;;;8.50;99.90;;;;;;5068732;28;20132;-84
2023/03/26 13:06:07;;;;;;;11.63;1.67;;;8.60;99.90;;;;;;5096701;28;20508;-84
2023/03/26 13:08:56;;;;;;;11.63;1.70;;;8.60;99.90;;;;;;5136053;28;20493;-84
2023/03/26 13:11:29;;;;;;;11.30;1.80;;;8.50;99.90;;;;;;5135149;28;20037;-84
2023/03/26 13:14:17;;;;;;;10.20;1.70;;;8.40;99.90;;;;;;5118720;28;20452;-84
2023/03/26 13:16:55;;;;;;;8.00;1.38;;;8.70;99.90;;;;;;5135746;28;20516;-84
2023/03/26 13:19:53;;;;;;;6.60;1.90;;;8.70;99.90;;;;;;5084241;28;20059;-82
2023/03/26 13:22:43;;;;;;;5.07;1.33;;;8.80;99.90;;;;;;5135468;28;20474;-81
2023/03/26 13:25:40;;;;;;;12.23;1.42;;;8.70;99.90;;;;;;5136137;28;20090;-81
2023/03/26 13:28:25;;;;;;;8.82;1.35;;;8.60;99.90;;;;;;5136573;28;20044;-80